Time;durP1;ratioP1;P1;durP2;ratioP2;P2;SDS_P1;SDS_P2;PMS_P1;PMS_P2;Temp;Humidity;BMP_temperature;BMP_pressure;BME280_temperature;BME280_humidity;BME280_pressure;Samples;Min_cycle;Max_cycle;Signal;HPM_P1;HPM_P2
2023/01/24 00:06:37;;;;;;;0.60;0.60;;;;;;;16.33;72.80;103638.91;20302499;29;20051;-93
2023/01/24 00:16:39;;;;;;;0.80;0.60;;;;;;;16.32;72.51;103647.91;20320382;29;20514;-93
2023/01/24 00:26:40;;;;;;;1.23;0.73;;;;;;;16.32;72.54;103641.66;20303518;29;20060;-91
2023/01/24 00:36:42;;;;;;;0.95;0.65;;;;;;;16.31;72.60;103643.47;20301617;29;20056;-90
2023/01/24 00:46:44;;;;;;;0.60;0.60;;;;;;;16.31;72.82;103627.34;20300280;29;20064;-92
2023/01/24 00:56:45;;;;;;;0.70;0.70;;;;;;;16.30;72.58;103614.81;20318188;29;20063;-93
2023/01/24 01:06:47;;;;;;;0.60;0.60;;;;;;;16.14;72.57;103589.50;20317062;29;20103;-94
2023/01/24 01:16:48;;;;;;;0.75;0.73;;;;;;;16.29;72.48;103613.06;20300677;29;20049;-92
2023/01/24 01:26:50;;;;;;;0.63;0.50;;;;;;;16.29;72.56;103606.84;20316476;29;20059;-93
2023/01/24 01:36:51;;;;;;;0.57;0.57;;;;;;;16.29;72.58;103607.69;20300001;29;20404;-93
2023/01/24 01:46:53;;;;;;;0.75;0.60;;;;;;;16.30;72.44;103613.97;20316044;29;20074;-92
2023/01/24 01:57:04;;;;;;;0.73;0.50;;;;;;;16.29;72.55;103617.59;20302950;29;20451;-94
2023/01/24 02:07:05;;;;;;;0.70;0.68;;;;;;;16.28;72.36;103616.69;20313628;29;20048;-92
2023/01/24 02:17:07;;;;;;;0.95;0.70;;;;;;;16.29;72.15;103625.66;20328805;29;20388;-92
2023/01/24 02:27:08;;;;;;;0.50;0.50;;;;;;;16.28;72.31;103613.16;20311404;29;20200;-93
2023/01/24 02:37:12;;;;;;;1.00;0.70;;;;;;;16.27;72.38;103603.34;20311101;29;20054;-92
2023/01/24 02:47:14;;;;;;;0.77;0.77;;;;;;;16.01;72.39;103564.88;20295219;29;20138;-93
2023/01/24 03:07:44;;;;;;;0.60;0.60;;;;;;;16.26;72.20;103606.97;20295253;29;20048;-92
2023/01/24 03:48:50;;;;;;;0.70;0.70;;;;;;;16.24;72.09;103615.97;20306281;29;20411;-92
2023/01/24 03:58:57;;;;;;;0.68;0.68;;;;;;;16.23;71.96;103607.94;20290573;29;20059;-92
2023/01/24 04:09:01;;;;;;;1.37;0.90;;;;;;;16.23;72.17;103621.38;20320784;29;20517;-93
2023/01/24 04:19:03;;;;;;;0.85;0.80;;;;;;;16.22;72.18;103611.56;20302116;29;20123;-92
2023/01/24 04:29:05;;;;;;;0.75;0.60;;;;;;;16.22;71.98;103617.84;20302712;29;20048;-92
2023/01/24 04:39:07;;;;;;;0.70;0.70;;;;;;;16.22;71.95;103623.22;20287403;29;20064;-93
2023/01/24 04:49:18;;;;;;;0.70;0.65;;;;;;;16.13;71.98;103611.94;20287885;29;20067;-92
2023/01/24 04:59:23;;;;;;;0.70;0.70;;;;;;;16.11;72.06;103608.41;20301567;29;20502;-92
2023/01/24 05:09:25;;;;;;;0.55;0.55;;;;;;;16.22;71.98;103622.31;20317470;29;20595;-93
2023/01/24 05:19:33;;;;;;;0.85;0.70;;;;;;;16.20;72.00;103627.78;20300348;29;20131;-92
2023/01/24 05:29:34;;;;;;;0.93;0.82;;;;;;;16.12;72.14;103610.16;20301380;29;20459;-91
2023/01/24 05:39:37;;;;;;;0.75;0.75;;;;;;;16.21;72.08;103625.94;20314357;29;20063;-93
2023/01/24 05:49:39;;;;;;;0.70;0.70;;;;;;;16.20;71.75;103616.13;20313852;29;20454;-93
2023/01/24 05:59:41;;;;;;;0.80;0.70;;;;;;;16.10;71.94;103599.47;20310108;29;20151;-93
2023/01/24 06:09:43;;;;;;;0.93;0.82;;;;;;;16.20;71.82;103619.72;20309594;29;20490;-92
2023/01/24 06:19:45;;;;;;;0.63;0.63;;;;;;;16.20;71.73;103627.78;20308790;29;20048;-92
2023/01/24 06:29:48;;;;;;;0.65;0.65;;;;;;;15.95;71.67;103598.25;20292146;29;20088;-92
2023/01/24 06:39:52;;;;;;;0.80;0.80;;;;;;;16.20;71.81;103645.69;20306583;29;20056;-92
2023/01/24 06:49:54;;;;;;;0.77;0.77;;;;;;;16.20;71.62;103662.72;20294033;29;20139;-93
2023/01/24 06:59:55;;;;;;;1.27;1.17;;;;;;;16.31;71.83;103654.22;20316474;29;20048;-90
2023/01/24 07:09:57;;;;;;;2.67;1.23;;;;;;;16.53;70.90;103669.53;20304279;29;20048;-93
2023/01/24 07:19:59;;;;;;;1.42;1.27;;;;;;;16.49;69.27;103635.63;20320218;29;20056;-92
2023/01/24 07:30:00;;;;;;;1.90;1.48;;;;;;;16.76;67.67;103670.44;20301737;29;20056;-92
2023/01/24 07:40:02;;;;;;;1.33;1.20;;;;;;;16.92;66.60;103687.75;20316759;29;20142;-92
2023/01/24 07:50:04;;;;;;;1.38;1.23;;;;;;;16.99;65.50;103701.84;20301395;29;20048;-93
2023/01/24 08:00:07;;;;;;;1.67;1.30;;;;;;;17.03;65.29;103699.91;20305567;29;20418;-86
2023/01/24 08:10:12;;;;;;;1.67;1.58;;;;;;;17.05;65.58;103715.06;20243628;29;20074;-86
2023/01/24 08:20:13;;;;;;;2.97;1.60;;;;;;;17.04;66.13;103704.34;20235722;29;20099;-86
2023/01/24 08:30:15;;;;;;;2.00;1.30;;;;;;;16.96;66.53;103700.13;20220275;29;20475;-86
2023/01/24 08:40:18;;;;;;;1.48;1.30;;;;;;;17.06;66.84;103727.59;20304663;29;20103;-86
2023/01/24 08:50:20;;;;;;;1.45;1.13;;;;;;;16.84;67.19;103700.63;20282370;29;20071;-86
2023/01/24 09:00:22;;;;;;;1.30;1.13;;;;;;;17.07;67.28;103740.13;20313763;29;20456;-86
2023/01/24 09:10:24;;;;;;;1.02;0.93;;;;;;;17.02;67.51;103747.50;20270075;29;20083;-88
2023/01/24 09:20:25;;;;;;;1.45;1.23;;;;;;;17.10;67.53;103749.84;20261420;29;20108;-88
2023/01/24 09:30:27;;;;;;;1.23;1.02;;;;;;;17.09;67.76;103759.75;20300571;29;20052;-87
2023/01/24 09:40:43;;;;;;;1.35;1.20;;;;;;;17.13;67.67;103765.03;20254498;29;20059;-86
2023/01/24 09:50:51;;;;;;;1.52;1.42;;;;;;;17.14;67.42;103770.34;20268496;29;20127;-89
2023/01/24 10:00:53;;;;;;;1.63;1.45;;;;;;;16.90;67.74;103729.97;20261554;29;20055;-87
2023/01/24 10:11:39;;;;;;;1.73;1.50;;;;;;;17.17;66.35;103762.13;20273575;29;20063;-93
2023/01/24 10:22:14;;;;;;;2.13;1.38;;;;;;;17.20;64.82;103748.53;20310938;29;20051;-92
2023/01/24 10:32:20;;;;;;;3.25;2.13;;;;;;;17.04;63.96;103709.72;20312590;29;20044;-94
2023/01/24 10:42:28;;;;;;;2.10;1.90;;;;;;;17.24;63.45;103731.34;20285004;29;20095;-95
2023/01/24 10:52:29;;;;;;;2.25;1.80;;;;;;;17.27;63.06;103721.41;20302305;29;20044;-92
2023/01/24 11:02:34;;;;;;;5.65;1.92;;;;;;;17.24;62.94;103707.13;20363996;29;20078;-94
2023/01/24 11:12:36;;;;;;;1.92;1.55;;;;;;;16.98;63.00;103650.78;20271964;29;20059;-92
2023/01/24 11:22:37;;;;;;;3.40;1.60;;;;;;;17.18;63.61;103679.56;20295162;29;20056;-94
2023/01/24 11:33:00;;;;;;;3.20;1.83;;;;;;;17.29;63.83;103700.66;20283208;29;20782;-92
2023/01/24 11:43:20;;;;;;;1.50;1.40;;;;;;;17.27;64.33;103700.72;20291083;29;20507;-93
2023/01/24 11:53:28;;;;;;;3.38;1.50;;;;;;;17.27;64.52;103689.94;20283545;29;20078;-91
2023/01/24 12:03:54;;;;;;;1.83;1.67;;;;;;;17.27;64.88;103686.41;20288011;29;20055;-92
2023/01/24 12:14:23;;;;;;;1.55;1.30;;;;;;;17.25;65.15;103679.25;20286347;29;20063;-93
2023/01/24 12:24:35;;;;;;;2.00;1.50;;;;;;;17.25;65.21;103668.50;20282368;29;20056;-94
2023/01/24 12:34:39;;;;;;;3.95;2.00;;;;;;;17.27;63.64;103660.34;20276261;29;20052;-90
2023/01/24 12:44:56;;;;;;;1.90;1.60;;;;;;;16.96;62.82;103587.09;20296133;29;20043;-90
2023/01/24 12:55:24;;;;;;;3.58;2.08;;;;;;;17.32;62.55;103633.22;20321761;29;20083;-92
2023/01/24 13:05:38;;;;;;;2.33;1.95;;;;;;;17.32;63.32;103620.63;20292691;29;20415;-94
2023/01/24 13:16:08;;;;;;;2.60;2.10;;;;;;;17.33;64.09;103613.44;20294578;29;20503;-95
2023/01/24 13:26:16;;;;;;;2.35;2.03;;;;;;;17.33;64.93;103610.75;20287936;29;20109;-94
2023/01/24 13:36:25;;;;;;;3.25;2.00;;;;;;;17.21;65.61;103585.22;20266776;29;20059;-95
2023/01/24 13:46:45;;;;;;;4.05;2.15;;;;;;;17.34;66.47;103599.03;20244849;29;20408;-93
2023/01/24 13:57:09;;;;;;;2.38;2.17;;;;;;;17.34;67.35;103607.97;20318123;29;20083;-92
2023/01/24 14:07:36;;;;;;;2.15;1.70;;;;;;;17.07;68.22;103558.88;20295252;29;20062;-91
2023/01/24 14:17:46;;;;;;;4.10;2.30;;;;;;;17.38;68.73;103606.88;20272550;29;20044;-92
2023/01/24 14:27:50;;;;;;;3.30;2.45;;;;;;;17.41;69.34;103622.06;20315840;29;20048;-91
2023/01/24 14:37:52;;;;;;;3.77;2.63;;;;;;;17.38;69.42;103604.19;20287544;29;20055;-91
2023/01/24 14:47:54;;;;;;;3.88;2.65;;;;;;;17.36;68.66;103597.13;20264608;29;20553;-93
2023/01/24 14:57:55;;;;;;;3.78;2.70;;;;;;;17.12;67.70;103583.78;20225731;29;20107;-91
2023/01/24 15:07:59;;;;;;;2.85;2.10;;;;;;;17.28;66.98;103616.31;20252524;29;20103;-92
2023/01/24 15:18:07;;;;;;;2.80;2.40;;;;;;;17.27;66.41;103602.94;20239051;29;20053;-91
2023/01/24 15:28:26;;;;;;;5.32;2.65;;;;;;;17.18;66.03;103583.50;20218412;29;20139;-88
2023/01/24 15:38:45;;;;;;;3.90;2.38;;;;;;;17.05;65.57;103564.34;20261728;29;20052;-85
2023/01/24 15:49:17;;;;;;;9.70;2.42;;;;;;;17.22;65.95;103595.03;20292572;29;20087;-88
2023/01/24 15:59:42;;;;;;;2.65;2.13;;;;;;;17.16;66.01;103588.09;20298032;29;20256;-91
2023/01/24 16:09:45;;;;;;;3.17;2.17;;;;;;;16.93;66.28;103565.72;20296086;29;20044;-89
2023/01/24 16:19:47;;;;;;;4.25;2.10;;;;;;;17.02;66.40;103590.50;20309621;29;20495;-88
2023/01/24 16:29:49;;;;;;;2.92;2.28;;;;;;;16.97;66.60;103609.50;20311798;29;20052;-86
2023/01/24 16:39:51;;;;;;;2.60;1.90;;;;;;;16.90;66.81;103597.22;20268923;29;20052;-88
2023/01/24 16:49:56;;;;;;;2.00;1.80;;;;;;;16.70;66.76;103565.78;20283816;29;20103;-93
2023/01/24 16:59:58;;;;;;;2.40;1.80;;;;;;;16.68;66.94;103577.47;20521913;23;20060;-89
2023/01/24 17:10:02;;;;;;;3.40;1.90;;;;;;;16.64;67.17;103558.84;20143013;29;20064;-93
2023/01/24 17:20:06;;;;;;;3.30;2.35;;;;;;;16.83;67.24;103596.63;20150701;29;20063;-85
2023/01/24 17:30:08;;;;;;;5.10;2.80;;;;;;;16.80;67.20;103586.88;20143199;29;20064;-96
2023/01/24 17:40:10;;;;;;;4.07;2.63;;;;;;;16.56;67.75;103548.41;20125256;29;20057;-91
2023/01/24 17:50:12;;;;;;;5.63;3.17;;;;;;;16.13;67.58;103470.38;20135282;29;20560;-92
2023/01/24 18:00:14;;;;;;;5.22;3.33;;;;;;;16.76;67.75;103584.34;20122631;29;20633;-90
2023/01/24 18:10:16;;;;;;;6.28;3.30;;;;;;;16.75;67.90;103596.94;20091804;29;20065;-92
2023/01/24 18:20:17;;;;;;;5.22;3.60;;;;;;;16.63;68.04;103582.16;20098540;29;20095;-89
2023/01/24 18:30:19;;;;;;;7.07;3.83;;;;;;;16.67;68.04;103586.47;20109751;29;20073;-89
2023/01/24 18:40:20;;;;;;;6.35;3.70;;;;;;;16.31;68.09;103514.44;20100756;29;20054;-89
2023/01/24 18:50:22;;;;;;;5.93;3.90;;;;;;;16.73;68.20;103595.22;20120593;29;20504;-86
2023/01/24 19:00:25;;;;;;;5.68;3.90;;;;;;;16.55;68.06;103570.84;20133706;29;20071;-92
2023/01/24 19:10:28;;;;;;;6.97;3.97;;;;;;;16.65;68.09;103582.97;20112875;29;20375;-88
2023/01/24 19:20:30;;;;;;;6.43;3.83;;;;;;;16.56;68.22;103577.09;20166792;29;20064;-85
2023/01/24 19:30:31;;;;;;;5.68;3.50;;;;;;;16.58;68.16;103576.09;20133598;29;20057;-88
2023/01/24 19:40:33;;;;;;;6.15;3.80;;;;;;;16.60;68.22;103568.84;20159899;29;20057;-88
2023/01/24 19:50:35;;;;;;;5.47;3.58;;;;;;;16.66;67.97;103586.56;20161177;29;20124;-88
2023/01/24 20:00:37;;;;;;;5.55;3.45;;;;;;;16.29;68.24;103526.19;20157089;29;20048;-88
2023/01/24 20:10:39;;;;;;;5.50;3.60;;;;;;;16.47;68.41;103559.53;20160936;29;20045;-88
2023/01/24 20:20:48;;;;;;;5.70;3.83;;;;;;;16.63;68.34;103594.75;20159504;29;20049;-88
2023/01/24 20:30:49;;;;;;;6.10;3.25;;;;;;;16.47;68.29;103572.97;20129659;29;20469;-88
2023/01/24 20:41:02;;;;;;;5.18;3.63;;;;;;;16.36;68.27;103568.03;20158431;29;20057;-88
2023/01/24 20:51:05;;;;;;;7.28;3.80;;;;;;;16.61;68.08;103597.50;20158464;29;20061;-88
2023/01/24 21:01:10;;;;;;;5.22;3.45;;;;;;;16.60;68.21;103590.38;20100431;29;20053;-89
2023/01/24 21:11:17;;;;;;;4.75;3.00;;;;;;;16.59;68.23;103585.91;20126557;29;20057;-88
2023/01/24 21:21:22;;;;;;;5.30;3.05;;;;;;;16.40;68.29;103553.53;20114317;29;20125;-88
2023/01/24 21:31:24;;;;;;;5.07;3.17;;;;;;;16.36;68.13;103543.81;20131767;29;20080;-88
2023/01/24 21:51:54;;;;;;;4.20;2.90;;;;;;;16.50;68.26;103562.09;20129582;29;20136;-88
2023/01/24 22:01:58;;;;;;;5.15;3.00;;;;;;;16.47;68.23;103563.09;20119339;29;20181;-88
2023/01/24 22:12:00;;;;;;;5.53;3.67;;;;;;;16.56;68.27;103569.91;20116971;29;20077;-88
2023/01/24 22:22:11;;;;;;;4.50;3.10;;;;;;;16.55;68.10;103554.72;20150496;29;20084;-88
2023/01/24 22:32:15;;;;;;;5.45;3.78;;;;;;;16.55;68.04;103549.34;20144234;29;20061;-88
2023/01/24 22:42:16;;;;;;;4.47;2.90;;;;;;;16.53;68.10;103546.69;20129621;29;20049;-88
2023/01/24 22:52:18;;;;;;;4.38;2.65;;;;;;;16.53;68.00;103544.00;20146493;29;20444;-88
2023/01/24 23:02:19;;;;;;;4.75;3.10;;;;;;;16.52;68.01;103544.94;20153743;29;20057;-88
2023/01/24 23:22:41;;;;;;;3.60;2.70;;;;;;;16.52;67.97;103514.50;20141281;29;20518;-88
2023/01/24 23:32:50;;;;;;;3.97;2.88;;;;;;;16.44;67.88;103474.47;20136703;29;20137;-88
2023/01/24 23:42:51;;;;;;;3.47;2.42;;;;;;;16.48;68.06;103467.16;20139986;29;20053;-88
2023/01/24 23:52:53;;;;;;;3.58;2.40;;;;;;;16.51;67.73;103467.03;20144211;29;20464;-88
